createdAt,value
2024-01-25T00:02:52.985Z,78.12
2024-01-25T00:07:50.904Z,78.29
2024-01-25T00:12:47.939Z,78.29
2024-01-25T00:17:45.822Z,78.94
2024-01-25T00:22:43.136Z,78.97
2024-01-25T00:27:39.972Z,78.95
2024-01-25T00:32:36.843Z,79.15
2024-01-25T00:37:34.013Z,79.54
2024-01-25T00:42:32.149Z,80.41
2024-01-25T00:47:29.440Z,80.30
2024-01-25T00:52:26.618Z,80.45
2024-01-25T00:57:24.014Z,80.22
2024-01-25T01:02:23.020Z,80.37
2024-01-25T01:07:20.622Z,80.18
2024-01-25T01:12:18.047Z,80.08
2024-01-25T01:17:16.809Z,80.35
2024-01-25T01:22:13.663Z,80.97
2024-01-25T01:27:10.661Z,81.43
2024-01-25T01:32:07.547Z,81.49
2024-01-25T01:37:04.459Z,81.47
2024-01-25T01:42:01.277Z,81.41
2024-01-25T01:46:58.096Z,81.34
2024-01-25T01:51:55.352Z,81.21
2024-01-25T01:56:52.929Z,81.46
2024-01-25T02:01:50.042Z,81.44
2024-01-25T02:06:47.722Z,81.33
2024-01-25T02:11:44.572Z,81.22
2024-01-25T02:16:42.638Z,81.43
2024-01-25T02:21:39.568Z,81.44
2024-01-25T02:26:38.060Z,81.64
2024-01-25T02:31:35.032Z,82.21
2024-01-25T02:36:31.807Z,82.58
2024-01-25T02:41:31.242Z,83.31
2024-01-25T02:46:28.152Z,83.38
2024-01-25T02:51:25.075Z,83.38
2024-01-25T02:56:21.900Z,83.62
2024-01-25T03:01:18.969Z,84.04
2024-01-25T03:06:15.981Z,84.12
2024-01-25T03:11:12.824Z,84.31
2024-01-25T03:16:09.785Z,84.19
2024-01-25T03:21:06.648Z,84.17
2024-01-25T03:26:03.878Z,83.88
2024-01-25T03:31:03.681Z,83.94
2024-01-25T03:36:04.572Z,84.37
2024-01-25T03:41:01.400Z,84.34
2024-01-25T03:45:58.238Z,84.31
2024-01-25T03:50:57.665Z,84.47
2024-01-25T03:55:54.414Z,84.55
2024-01-25T04:00:51.267Z,84.98
2024-01-25T04:05:48.228Z,85.43
2024-01-25T04:10:45.080Z,85.52
2024-01-25T04:15:41.875Z,85.87
2024-01-25T04:20:38.808Z,85.91
2024-01-25T04:25:35.767Z,85.80
2024-01-25T04:30:34.209Z,85.81
2024-01-25T04:35:33.248Z,85.92
2024-01-25T04:40:30.388Z,85.87
2024-01-25T04:45:27.246Z,86.06
2024-01-25T04:50:24.198Z,85.71
2024-01-25T04:55:21.534Z,85.89
2024-01-25T05:00:18.743Z,85.98
2024-01-25T05:05:16.409Z,85.96
2024-01-25T05:10:13.453Z,85.80
2024-01-25T05:15:12.695Z,85.99
2024-01-25T05:20:10.961Z,86.13
2024-01-25T05:25:09.545Z,86.30
2024-01-25T05:30:07.653Z,86.55
2024-01-25T05:35:05.268Z,87.07
2024-01-25T05:40:02.318Z,87.49
2024-01-25T05:44:59.624Z,88.17
2024-01-25T05:49:56.624Z,88.24
2024-01-25T05:54:53.508Z,88.46
2024-01-25T05:59:51.444Z,89.71
2024-01-25T06:04:50.589Z,89.96
2024-01-25T06:09:47.418Z,90.07
2024-01-25T06:14:44.334Z,90.38
2024-01-25T06:19:41.544Z,90.98
2024-01-25T06:24:39.069Z,91.17
2024-01-25T06:29:35.894Z,93.49
2024-01-25T06:34:32.748Z,92.42
2024-01-25T06:39:30.083Z,92.31
2024-01-25T06:44:29.508Z,93.73
2024-01-25T06:49:26.452Z,93.06
2024-01-25T06:54:23.573Z,94.04
2024-01-25T06:59:20.357Z,94.03
2024-01-25T07:04:17.665Z,93.42
2024-01-25T07:09:14.965Z,93.32
2024-01-25T07:14:11.725Z,93.27
2024-01-25T07:19:08.694Z,93.30
2024-01-25T07:24:06.109Z,93.61
2024-01-25T07:29:02.885Z,94.42
2024-01-25T07:33:59.785Z,95.42
2024-01-25T07:38:56.739Z,94.65
2024-01-25T07:43:56.584Z,95.00
2024-01-25T07:48:53.636Z,94.72
2024-01-25T07:53:50.570Z,94.54
2024-01-25T07:58:47.386Z,94.88
2024-01-25T08:03:44.240Z,94.78
2024-01-25T08:08:41.201Z,94.50
2024-01-25T08:13:38.040Z,94.56
2024-01-25T08:18:35.079Z,95.10
2024-01-25T08:23:31.955Z,94.50
2024-01-25T08:28:28.756Z,94.78
2024-01-25T08:33:26.550Z,95.11
2024-01-25T08:38:23.448Z,94.74
2024-01-25T08:43:20.286Z,95.02
2024-01-25T08:48:17.364Z,94.99
2024-01-25T08:53:15.631Z,95.27
2024-01-25T08:58:12.440Z,95.37
2024-01-25T09:03:09.258Z,95.39
2024-01-25T09:08:06.412Z,95.36
2024-01-25T09:13:03.374Z,96.28
2024-01-25T09:18:00.253Z,95.66
2024-01-25T09:22:57.164Z,95.97
2024-01-25T09:27:54.615Z,95.91
2024-01-25T09:32:52.731Z,95.30
2024-01-25T09:37:53.633Z,95.66
2024-01-25T09:42:53.963Z,95.96
2024-01-25T09:47:50.985Z,95.48
2024-01-25T09:52:57.125Z,95.77
2024-01-25T09:58:00.206Z,95.39
2024-01-25T10:02:59.563Z,95.35
2024-01-25T10:08:02.486Z,95.23
2024-01-25T10:13:00.621Z,95.18
2024-01-25T10:18:14.498Z,95.21
2024-01-25T10:23:14.686Z,95.69
2024-01-25T10:28:14.083Z,95.62
2024-01-25T10:33:11.894Z,95.31
2024-01-25T10:38:09.037Z,95.08
2024-01-25T10:43:06.001Z,94.85
2024-01-25T10:48:03.640Z,94.36
2024-01-25T10:53:02.096Z,94.22
2024-01-25T10:57:58.871Z,93.97
2024-01-25T11:02:56.682Z,93.73
2024-01-25T11:07:53.677Z,93.41
2024-01-25T11:12:58.548Z,93.20
2024-01-25T11:17:55.821Z,92.96
2024-01-25T11:23:12.355Z,92.32
2024-01-25T11:28:09.475Z,92.35
2024-01-25T11:33:08.283Z,91.89
2024-01-25T11:38:05.373Z,90.91
2024-01-25T11:43:03.497Z,89.48
2024-01-25T11:48:00.468Z,89.76
2024-01-25T11:52:57.595Z,89.27
2024-01-25T11:57:54.698Z,88.04
2024-01-25T12:02:51.641Z,88.13
2024-01-25T12:07:49.073Z,87.34
2024-01-25T12:12:46.007Z,87.13
2024-01-25T12:17:43.199Z,86.22
2024-01-25T12:22:40.389Z,85.96
2024-01-25T12:27:38.755Z,84.56
2024-01-25T12:32:36.053Z,84.30
2024-01-25T12:37:33.404Z,84.87
2024-01-25T12:42:30.521Z,84.50
2024-01-25T12:47:28.756Z,84.31
2024-01-25T12:52:26.012Z,84.46
2024-01-25T12:57:22.953Z,84.57
2024-01-25T13:02:19.924Z,83.80
2024-01-25T13:07:16.750Z,83.65
2024-01-25T13:12:13.594Z,83.24
2024-01-25T13:17:10.508Z,82.94
2024-01-25T13:22:07.374Z,82.45
2024-01-25T13:27:04.980Z,81.11
2024-01-25T13:32:01.767Z,82.59
2024-01-25T13:36:58.596Z,82.33
2024-01-25T13:41:55.390Z,81.77
2024-01-25T13:46:53.677Z,81.11
2024-01-25T13:51:50.519Z,81.51
2024-01-25T13:56:47.360Z,81.76
2024-01-25T14:01:44.186Z,81.79
2024-01-25T14:06:40.993Z,81.63
2024-01-25T14:11:38.117Z,81.05
2024-01-25T14:16:35.210Z,80.90
2024-01-25T14:21:36.589Z,80.11
2024-01-25T14:26:33.430Z,80.22
2024-01-25T14:31:30.261Z,80.09
2024-01-25T14:36:27.143Z,80.16
2024-01-25T14:41:24.036Z,79.78
2024-01-25T14:46:20.986Z,80.14
2024-01-25T14:51:17.759Z,79.76
2024-01-25T14:56:14.587Z,79.95
2024-01-25T15:01:19.711Z,79.63
2024-01-25T15:06:16.809Z,80.26
2024-01-25T15:11:13.793Z,80.19
2024-01-25T15:16:10.829Z,80.64
2024-01-25T15:21:07.730Z,80.73
2024-01-25T15:26:05.816Z,80.77
2024-01-25T15:31:03.322Z,81.32
2024-01-25T15:36:00.340Z,81.36
2024-01-25T15:40:57.221Z,81.21
2024-01-25T15:45:54.070Z,81.50
2024-01-25T15:50:51.436Z,81.36
2024-01-25T15:55:48.262Z,81.60
2024-01-25T16:00:45.119Z,81.69
2024-01-25T16:05:42.048Z,81.79
2024-01-25T16:10:39.077Z,82.05
2024-01-25T16:15:36.052Z,82.80
2024-01-25T16:20:32.897Z,82.89
2024-01-25T16:25:31.747Z,83.63
2024-01-25T16:30:28.644Z,83.59
2024-01-25T16:35:25.513Z,83.48
2024-01-25T16:40:22.258Z,83.33
2024-01-25T16:45:19.050Z,83.57
2024-01-25T16:50:16.262Z,83.40
2024-01-25T16:55:13.289Z,83.56
2024-01-25T17:00:10.622Z,83.69
2024-01-25T17:05:07.653Z,85.07
2024-01-25T17:10:05.691Z,84.34
2024-01-25T17:15:02.462Z,84.56
2024-01-25T17:20:03.539Z,84.69
2024-01-25T17:25:01.216Z,85.13
2024-01-25T17:29:58.181Z,85.08
2024-01-25T17:34:58.214Z,85.68
2024-01-25T17:39:55.216Z,85.31
2024-01-25T17:44:52.157Z,85.40
2024-01-25T17:49:51.567Z,85.59
2024-01-25T17:54:48.445Z,85.69
2024-01-25T17:59:45.215Z,86.30
2024-01-25T18:04:42.045Z,87.08
2024-01-25T18:09:39.011Z,87.14
2024-01-25T18:14:35.911Z,87.85
2024-01-25T18:19:37.283Z,87.56
2024-01-25T18:24:34.278Z,89.38
2024-01-25T18:29:31.508Z,88.73
2024-01-25T18:34:28.401Z,88.40
2024-01-25T18:39:25.350Z,88.58
2024-01-25T18:44:26.013Z,88.77
2024-01-25T18:49:22.890Z,88.64
2024-01-25T18:54:21.029Z,90.33
2024-01-25T18:59:19.262Z,89.84
2024-01-25T19:04:16.677Z,89.94
2024-01-25T19:09:13.889Z,90.08
2024-01-25T19:14:10.744Z,90.33
2024-01-25T19:19:07.758Z,91.34
2024-01-25T19:24:05.414Z,91.61
2024-01-25T19:29:02.206Z,92.33
2024-01-25T19:33:59.063Z,91.23
2024-01-25T19:38:56.022Z,92.00
2024-01-25T19:43:52.929Z,92.40
2024-01-25T19:48:49.925Z,92.10
2024-01-25T19:53:47.052Z,92.88
2024-01-25T19:58:48.738Z,93.91
2024-01-25T20:03:47.067Z,94.86
2024-01-25T20:08:45.171Z,94.04
2024-01-25T20:13:42.651Z,93.70
2024-01-25T20:18:39.671Z,93.73
2024-01-25T20:23:36.760Z,93.69
2024-01-25T20:28:33.639Z,93.69
2024-01-25T20:33:30.541Z,93.94
2024-01-25T20:38:27.442Z,94.62
2024-01-25T20:43:24.217Z,97.41
2024-01-25T20:48:21.141Z,95.11
2024-01-25T20:53:18.319Z,94.70
2024-01-25T20:58:15.126Z,95.19
2024-01-25T21:03:12.192Z,94.73
2024-01-25T21:08:11.147Z,96.09
2024-01-25T21:13:08.448Z,95.66
2024-01-25T21:18:06.164Z,96.22
2024-01-25T21:23:03.327Z,97.36
2024-01-25T21:28:02.105Z,97.05
2024-01-25T21:32:59.005Z,96.34
2024-01-25T21:37:56.032Z,100.00
2024-01-25T21:42:53.454Z,98.54
2024-01-25T21:47:50.348Z,100.00
2024-01-25T21:52:47.270Z,99.49
2024-01-25T21:57:51.072Z,100.00
2024-01-25T22:02:51.690Z,100.00
2024-01-25T22:07:49.902Z,99.98
2024-01-25T22:12:46.766Z,99.46
2024-01-25T22:17:43.675Z,98.75
2024-01-25T22:22:41.231Z,99.37
2024-01-25T22:27:39.181Z,98.22
2024-01-25T22:32:36.026Z,98.79
2024-01-25T22:37:32.772Z,99.08
2024-01-25T22:42:29.616Z,98.10
2024-01-25T22:47:26.468Z,98.15
2024-01-25T22:52:23.356Z,98.58
2024-01-25T22:57:21.100Z,97.99
2024-01-25T23:02:17.977Z,97.56
2024-01-25T23:07:14.814Z,97.31
2024-01-25T23:12:11.849Z,97.17
2024-01-25T23:17:09.004Z,97.29
2024-01-25T23:22:07.703Z,97.66
2024-01-25T23:27:04.887Z,96.97
2024-01-25T23:32:01.674Z,97.21
2024-01-25T23:36:58.758Z,97.17
2024-01-25T23:41:55.573Z,97.84
2024-01-25T23:46:52.406Z,98.23
2024-01-25T23:51:49.507Z,99.40
2024-01-25T23:56:46.344Z,98.19
